Time;durP1;ratioP1;P1;durP2;ratioP2;P2;SDS_P1;SDS_P2;PMS_P1;PMS_P2;Temp;Humidity;BMP_temperature;BMP_pressure;BME280_temperature;BME280_humidity;BME280_pressure;Samples;Min_cycle;Max_cycle;Signal;HPM_P1;HPM_P2
2022/01/20 00:04:15;;;;;;;;;;;3.80;99.90;;;;;;5138971;27;19934;-59
2022/01/20 00:20:30;;;;;;;;;;;3.80;99.90;;;;;;5137052;27;20355;-61
2022/01/20 00:28:43;;;;;;;;;;;3.80;99.90;;;;;;5084899;28;19935;-60
2022/01/20 00:33:48;;;;;;;;;;;3.80;99.90;;;;;;5128488;27;20312;-59
2022/01/20 00:38:43;;;;;;;;;;;3.80;99.90;;;;;;5130347;27;19933;-59
2022/01/20 00:41:14;;;;;;;;;;;3.80;99.90;;;;;;5134905;27;19927;-59
2022/01/20 00:43:41;;;;;;;;;;;3.80;99.90;;;;;;5139456;27;19927;-60
2022/01/20 00:46:06;;;;;;;;;;;3.80;99.90;;;;;;5142649;27;19927;-60
2022/01/20 00:48:32;;;;;;;;;;;3.80;99.90;;;;;;5132164;27;19972;-56
2022/01/20 00:50:57;;;;;;;;;;;3.90;99.90;;;;;;5145384;27;19934;-56
2022/01/20 00:53:23;;;;;;;;;;;3.90;99.90;;;;;;5135352;27;19927;-61
2022/01/20 00:55:48;;;;;;;;;;;3.90;99.90;;;;;;5137885;27;19935;-59
2022/01/20 00:58:14;;;;;;;;;;;3.90;99.90;;;;;;5143570;27;19931;-58
2022/01/20 01:00:40;;;;;;;;;;;3.90;99.90;;;;;;5132949;27;19926;-59
2022/01/20 01:03:05;;;;;;;;;;;4.00;99.90;;;;;;5136471;27;19927;-60
2022/01/20 01:05:34;;;;;;;;;;;3.90;99.90;;;;;;5137117;27;20447;-58
2022/01/20 01:07:59;;;;;;;;;;;4.00;99.90;;;;;;5141300;27;19934;-56
2022/01/20 01:10:29;;;;;;;;;;;4.00;99.90;;;;;;5132835;27;19927;-56
2022/01/20 01:13:07;;;;;;;;;;;4.00;99.90;;;;;;5128492;27;20351;-56
2022/01/20 01:15:37;;;;;;;;;;;4.10;99.90;;;;;;5128916;27;19988;-56
2022/01/20 01:23:27;;;;;;;;;;;3.80;99.90;;;;;;5127352;27;19931;-58
2022/01/20 01:25:56;;;;;;;;;;;3.70;99.90;;;;;;5134239;27;20011;-56
2022/01/20 01:28:24;;;;;;;;;;;3.70;99.90;;;;;;5143310;27;20071;-62
2022/01/20 01:33:37;;;;;;;;;;;3.60;99.90;;;;;;5128616;27;19931;-60
2022/01/20 01:36:04;;;;;;;;;;;3.50;99.90;;;;;;5141981;27;19971;-59
2022/01/20 01:38:37;;;;;;;;;;;3.50;99.90;;;;;;5130126;27;19927;-57
2022/01/20 01:41:03;;;;;;;;;;;3.40;99.90;;;;;;5132609;27;19934;-56
2022/01/20 01:43:31;;;;;;;;;;;3.40;99.90;;;;;;5140054;27;20387;-58
2022/01/20 01:45:57;;;;;;;;;;;2.50;99.90;;;;;;5139887;27;19934;-59
2022/01/20 01:48:22;;;;;;;;;;;3.30;99.90;;;;;;5135567;27;19923;-58
2022/01/20 01:50:48;;;;;;;;;;;3.20;99.90;;;;;;5134529;27;19956;-59
2022/01/20 01:53:16;;;;;;;;;;;3.20;99.90;;;;;;5146514;27;19927;-62
2022/01/20 01:55:41;;;;;;;;;;;3.20;99.90;;;;;;5141541;27;20405;-57
2022/01/20 01:58:07;;;;;;;;;;;3.10;99.90;;;;;;5138137;27;20276;-58
2022/01/20 02:00:32;;;;;;;;;;;3.20;99.90;;;;;;5145598;27;20351;-65
2022/01/20 02:02:59;;;;;;;;;;;3.20;99.90;;;;;;5140344;27;20410;-55
2022/01/20 02:05:24;;;;;;;;;;;3.20;99.90;;;;;;5141773;27;20270;-55
2022/01/20 02:18:47;;;;;;;;;;;3.10;99.90;;;;;;5148862;27;19934;-55
2022/01/20 02:21:13;;;;;;;;;;;3.10;99.90;;;;;;5138064;27;19950;-56
2022/01/20 02:23:38;;;;;;;;;;;3.20;99.90;;;;;;5141116;27;20385;-55
2022/01/20 02:26:04;;;;;;;;;;;3.20;99.90;;;;;;5137130;27;19982;-57
2022/01/20 02:28:30;;;;;;;;;;;3.20;99.90;;;;;;5148158;27;19980;-56
2022/01/20 02:30:56;;;;;;;;;;;3.10;99.90;;;;;;5148579;27;19928;-55
2022/01/20 02:33:24;;;;;;;;;;;3.00;99.90;;;;;;5132785;27;20403;-57
2022/01/20 02:35:51;;;;;;;;;;;3.00;99.90;;;;;;5141088;27;19927;-56
2022/01/20 02:38:27;;;;;;;;;;;3.00;99.90;;;;;;5136888;27;19935;-55
2022/01/20 02:46:22;;;;;;;;;;;3.00;99.90;;;;;;5145714;27;19927;-55
2022/01/20 02:48:48;;;;;;;;;;;3.10;99.90;;;;;;5134775;27;19927;-56
2022/01/20 02:51:13;;;;;;;;;;;3.10;99.90;;;;;;5145994;27;19924;-55
2022/01/20 02:53:39;;;;;;;;;;;3.10;99.90;;;;;;5141468;27;19931;-55
2022/01/20 02:56:05;;;;;;;;;;;3.20;99.90;;;;;;5142894;27;20013;-56
2022/01/20 02:58:30;;;;;;;;;;;3.20;99.90;;;;;;5136110;27;19959;-56
2022/01/20 03:00:56;;;;;;;;;;;3.20;99.90;;;;;;5131773;27;19970;-55
2022/01/20 03:03:22;;;;;;;;;;;3.20;99.90;;;;;;5130766;27;19927;-55
2022/01/20 03:05:48;;;;;;;;;;;3.20;99.90;;;;;;5132111;27;20353;-56
2022/01/20 03:08:14;;;;;;;;;;;3.20;99.90;;;;;;5145040;27;20424;-55
2022/01/20 03:10:40;;;;;;;;;;;3.30;99.90;;;;;;5148189;27;19979;-55
2022/01/20 03:13:06;;;;;;;;;;;3.70;99.90;;;;;;5136680;27;20321;-55
2022/01/20 03:15:34;;;;;;;;;;;3.20;99.90;;;;;;5131619;27;19934;-56
2022/01/20 03:18:00;;;;;;;;;;;3.10;99.90;;;;;;5130707;27;19927;-55
2022/01/20 03:20:26;;;;;;;;;;;3.00;99.90;;;;;;5147593;27;19927;-56
2022/01/20 03:22:51;;;;;;;;;;;2.90;99.90;;;;;;5133880;27;19927;-60
2022/01/20 03:25:17;;;;;;;;;;;2.80;99.90;;;;;;5144906;27;19927;-56
2022/01/20 03:27:42;;;;;;;;;;;2.80;99.90;;;;;;5140884;27;19927;-56
2022/01/20 03:30:08;;;;;;;;;;;2.80;99.90;;;;;;5130930;27;19988;-58
2022/01/20 03:32:34;;;;;;;;;;;2.80;99.90;;;;;;5145141;27;19927;-57
2022/01/20 03:35:00;;;;;;;;;;;2.80;99.90;;;;;;5132841;27;19927;-56
2022/01/20 03:37:25;;;;;;;;;;;2.80;99.90;;;;;;5141929;27;19927;-55
2022/01/20 03:39:51;;;;;;;;;;;2.90;99.90;;;;;;5130367;27;20018;-60
2022/01/20 03:42:16;;;;;;;;;;;2.90;99.90;;;;;;5145776;27;20387;-56
2022/01/20 03:44:42;;;;;;;;;;;3.00;99.90;;;;;;5132112;27;19927;-56
2022/01/20 03:47:09;;;;;;;;;;;3.00;99.90;;;;;;5143504;27;20346;-55
2022/01/20 03:49:50;;;;;;;;;;;3.10;99.90;;;;;;5139259;27;20017;-57
2022/01/20 03:52:16;;;;;;;;;;;3.10;99.90;;;;;;5134121;27;19935;-58
2022/01/20 03:54:41;;;;;;;;;;;3.90;99.90;;;;;;5141923;27;19928;-60
2022/01/20 03:57:07;;;;;;;;;;;3.30;99.90;;;;;;5135509;27;19927;-59
2022/01/20 03:59:32;;;;;;;;;;;3.30;99.90;;;;;;5141297;27;19927;-61
2022/01/20 04:01:58;;;;;;;;;;;3.40;99.90;;;;;;5144406;27;19978;-56
2022/01/20 04:04:24;;;;;;;;;;;3.20;99.90;;;;;;5139730;27;19928;-59
2022/01/20 04:06:49;;;;;;;;;;;3.30;99.90;;;;;;5146328;27;19931;-62
2022/01/20 04:09:15;;;;;;;;;;;3.20;99.90;;;;;;5135674;27;20287;-62
2022/01/20 04:11:40;;;;;;;;;;;3.20;99.90;;;;;;5139591;27;19935;-61
2022/01/20 04:14:06;;;;;;;;;;;3.20;99.90;;;;;;5143475;27;19934;-62
2022/01/20 04:16:39;;;;;;;;;;;3.30;99.90;;;;;;5132923;27;19927;-61
2022/01/20 04:19:07;;;;;;;;;;;3.20;99.90;;;;;;5144452;27;19931;-62
2022/01/20 04:21:33;;;;;;;;;;;3.30;99.90;;;;;;5138684;27;20293;-56
2022/01/20 04:23:59;;;;;;;;;;;3.30;99.90;;;;;;5140676;27;19934;-56
2022/01/20 04:26:25;;;;;;;;;;;3.30;99.90;;;;;;5145493;27;19931;-57
2022/01/20 04:28:53;;;;;;;;;;;3.20;99.90;;;;;;5130270;27;19934;-57
2022/01/20 04:31:20;;;;;;;;;;;3.20;99.90;;;;;;5131253;27;19927;-55
2022/01/20 04:33:45;;;;;;;;;;;3.20;99.90;;;;;;5140691;27;20015;-62
2022/01/20 04:36:11;;;;;;;;;;;3.30;99.90;;;;;;5134969;27;20507;-56
2022/01/20 04:38:36;;;;;;;;;;;3.40;99.90;;;;;;5144847;27;19934;-56
2022/01/20 04:41:02;;;;;;;;;;;3.30;99.90;;;;;;5144607;27;20040;-58
2022/01/20 04:43:28;;;;;;;;;;;3.30;99.90;;;;;;5137565;27;19933;-56
2022/01/20 04:46:10;;;;;;;;;;;3.30;99.90;;;;;;5136844;27;20030;-56
2022/01/20 04:49:00;;;;;;;;;;;3.30;99.90;;;;;;5135714;27;20455;-55
2022/01/20 04:59:38;;;;;;;;;;;3.20;99.90;;;;;;5138770;27;19927;-58
2022/01/20 05:02:04;;;;;;;;;;;3.20;99.90;;;;;;5142135;27;19931;-56
2022/01/20 05:04:29;;;;;;;;;;;3.10;99.90;;;;;;5136053;27;20289;-56
2022/01/20 05:06:57;;;;;;;;;;;3.10;99.90;;;;;;5141484;27;20376;-58
2022/01/20 05:09:23;;;;;;;;;;;2.90;99.90;;;;;;5134366;27;19931;-59
2022/01/20 05:11:56;;;;;;;;;;;2.90;99.90;;;;;;5128792;27;19934;-57
2022/01/20 05:14:22;;;;;;;;;;;2.90;99.90;;;;;;5145150;27;19996;-56
2022/01/20 05:16:47;;;;;;;;;;;2.80;99.90;;;;;;5131191;27;20318;-56
2022/01/20 05:19:13;;;;;;;;;;;2.70;99.90;;;;;;5140752;27;19927;-60
2022/01/20 05:21:39;;;;;;;;;;;3.10;99.90;;;;;;5127898;27;19977;-56
2022/01/20 05:24:04;;;;;;;;;;;2.70;99.90;;;;;;5127232;27;19936;-62
2022/01/20 05:26:30;;;;;;;;;;;2.70;99.90;;;;;;5144653;27;19985;-56
2022/01/20 05:28:55;;;;;;;;;;;2.70;99.90;;;;;;5129134;27;19935;-57
2022/01/20 05:31:21;;;;;;;;;;;2.70;99.90;;;;;;5132900;27;20038;-57
2022/01/20 05:33:47;;;;;;;;;;;2.70;99.90;;;;;;5138524;27;19931;-61
2022/01/20 05:36:12;;;;;;;;;;;2.70;99.90;;;;;;5143246;27;19927;-59
2022/01/20 05:38:38;;;;;;;;;;;2.70;99.90;;;;;;5130994;27;19934;-56
2022/01/20 05:41:03;;;;;;;;;;;2.60;99.90;;;;;;5133522;27;20021;-60
2022/01/20 05:43:29;;;;;;;;;;;2.60;99.90;;;;;;5140447;27;19980;-58
2022/01/20 05:45:55;;;;;;;;;;;2.60;99.90;;;;;;5140202;27;20372;-60
2022/01/20 05:48:32;;;;;;;;;;;2.50;99.90;;;;;;5132974;27;19935;-59
2022/01/20 05:50:57;;;;;;;;;;;2.40;99.90;;;;;;5127797;27;20422;-57
2022/01/20 05:53:23;;;;;;;;;;;2.40;99.90;;;;;;5135058;27;20329;-59
2022/01/20 05:55:48;;;;;;;;;;;2.30;99.90;;;;;;5137190;27;19927;-59
2022/01/20 05:58:14;;;;;;;;;;;2.30;99.90;;;;;;5142731;27;19938;-56
2022/01/20 06:00:40;;;;;;;;;;;2.30;99.90;;;;;;5131231;27;19928;-57
2022/01/20 06:05:49;;;;;;;;;;;2.20;99.90;;;;;;5136763;27;20476;-56
2022/01/20 06:08:15;;;;;;;;;;;2.20;99.90;;;;;;5139486;27;20017;-55
2022/01/20 06:10:41;;;;;;;;;;;2.20;99.90;;;;;;5144692;27;20018;-56
2022/01/20 06:13:06;;;;;;;;;;;2.90;99.90;;;;;;5133521;27;19987;-56
2022/01/20 06:15:32;;;;;;;;;;;2.30;99.90;;;;;;5140048;27;19934;-60
2022/01/20 06:17:58;;;;;;;;;;;2.20;99.90;;;;;;5129536;27;19927;-57
2022/01/20 06:20:23;;;;;;;;;;;2.30;99.90;;;;;;5135754;27;20337;-56
2022/01/20 06:22:49;;;;;;;;;;;2.40;99.90;;;;;;5140026;27;20731;-56
2022/01/20 06:25:15;;;;;;;;;;;2.50;99.90;;;;;;5136758;27;19954;-55
2022/01/20 06:27:40;;;;;;;;;;;2.60;99.90;;;;;;5128090;27;19980;-55
2022/01/20 06:30:07;;;;;;;;;;;2.60;99.90;;;;;;5127353;27;19931;-59
2022/01/20 06:32:33;;;;;;;;;;;2.60;99.90;;;;;;5129391;27;19975;-56
2022/01/20 06:34:58;;;;;;;;;;;2.70;99.90;;;;;;5134617;27;19973;-57
2022/01/20 06:37:24;;;;;;;;;;;2.70;99.90;;;;;;5137116;27;19970;-56
2022/01/20 06:39:49;;;;;;;;;;;2.70;99.90;;;;;;5138388;27;19931;-56
2022/01/20 06:42:15;;;;;;;;;;;2.70;99.90;;;;;;5128596;27;19931;-58
2022/01/20 06:44:42;;;;;;;;;;;2.70;99.90;;;;;;5132412;27;20281;-56
2022/01/20 06:47:08;;;;;;;;;;;2.80;99.90;;;;;;5135612;27;19927;-63
2022/01/20 06:49:33;;;;;;;;;;;2.70;99.90;;;;;;5137610;27;19927;-56
2022/01/20 06:51:59;;;;;;;;;;;2.70;99.90;;;;;;5130635;27;19952;-57
2022/01/20 06:54:25;;;;;;;;;;;2.70;99.90;;;;;;5141561;27;20392;-64
2022/01/20 06:56:50;;;;;;;;;;;2.70;99.90;;;;;;5133957;27;19935;-61
2022/01/20 06:59:17;;;;;;;;;;;2.70;99.90;;;;;;5144544;27;20046;-56
2022/01/20 07:01:43;;;;;;;;;;;2.70;99.90;;;;;;5137589;27;19928;-56
2022/01/20 07:04:13;;;;;;;;;;;2.60;99.90;;;;;;5130916;27;19939;-56
2022/01/20 07:06:39;;;;;;;;;;;2.50;99.90;;;;;;5137875;27;19956;-56
2022/01/20 07:09:05;;;;;;;;;;;2.50;99.90;;;;;;5135238;27;19931;-58
2022/01/20 07:11:31;;;;;;;;;;;2.50;99.90;;;;;;5146447;27;20013;-58
2022/01/20 07:13:57;;;;;;;;;;;2.60;99.90;;;;;;5143751;27;20349;-56
2022/01/20 07:16:22;;;;;;;;;;;2.70;99.90;;;;;;5134904;27;19928;-56
2022/01/20 07:18:50;;;;;;;;;;;2.50;99.90;;;;;;5145504;27;20296;-57
2022/01/20 07:21:16;;;;;;;;;;;3.60;99.90;;;;;;5137312;27;20269;-56
2022/01/20 07:23:41;;;;;;;;;;;2.50;99.90;;;;;;5132602;27;19928;-57
2022/01/20 07:26:07;;;;;;;;;;;2.50;99.90;;;;;;5143829;27;19933;-57
2022/01/20 07:28:33;;;;;;;;;;;2.50;99.90;;;;;;5133498;27;19963;-64
2022/01/20 07:30:58;;;;;;;;;;;2.50;99.90;;;;;;5131907;27;19927;-56
2022/01/20 07:33:24;;;;;;;;;;;2.60;99.90;;;;;;5132151;27;19946;-59
2022/01/20 07:35:50;;;;;;;;;;;2.50;99.90;;;;;;5128324;27;20021;-56
2022/01/20 07:38:16;;;;;;;;;;;2.60;99.90;;;;;;5136170;27;20026;-56
2022/01/20 07:40:41;;;;;;;;;;;2.60;99.90;;;;;;5139365;27;19927;-59
2022/01/20 07:43:07;;;;;;;;;;;2.50;99.90;;;;;;5127585;27;19927;-57
2022/01/20 07:45:33;;;;;;;;;;;2.50;99.90;;;;;;5141258;27;20025;-57
2022/01/20 07:47:58;;;;;;;;;;;2.50;99.90;;;;;;5135354;27;19931;-58
2022/01/20 07:50:24;;;;;;;;;;;2.50;99.90;;;;;;5128881;27;19953;-63
2022/01/20 07:52:50;;;;;;;;;;;2.50;99.90;;;;;;5146208;27;20346;-60
2022/01/20 07:55:15;;;;;;;;;;;2.60;99.90;;;;;;5136245;27;19927;-56
2022/01/20 07:57:41;;;;;;;;;;;3.00;99.90;;;;;;5133608;27;19928;-60
2022/01/20 08:00:07;;;;;;;;;;;2.40;99.90;;;;;;5140708;27;19927;-57
2022/01/20 08:02:33;;;;;;;;;;;2.30;99.90;;;;;;5129774;27;19935;-61
2022/01/20 08:04:59;;;;;;;;;;;2.20;99.90;;;;;;5129212;27;19927;-58
2022/01/20 08:07:25;;;;;;;;;;;2.20;99.90;;;;;;5120120;27;20019;-58
2022/01/20 08:09:56;;;;;;;;;;;2.30;99.90;;;;;;5133899;27;19923;-56
2022/01/20 08:12:22;;;;;;;;;;;3.00;99.90;;;;;;5142642;27;20060;-56
2022/01/20 08:14:48;;;;;;;;;;;2.40;99.90;;;;;;5130586;27;20302;-57
2022/01/20 08:17:14;;;;;;;;;;;2.40;99.90;;;;;;5126649;27;19935;-56
2022/01/20 08:19:39;;;;;;;;;;;2.40;99.90;;;;;;5135751;27;20018;-57
2022/01/20 08:22:05;;;;;;;;;;;2.50;99.90;;;;;;5139594;27;20017;-60
2022/01/20 08:24:30;;;;;;;;;;;2.40;99.90;;;;;;5129375;27;19928;-57
2022/01/20 08:26:56;;;;;;;;;;;2.40;99.90;;;;;;5142539;27;19993;-56
2022/01/20 08:29:21;;;;;;;;;;;2.50;99.90;;;;;;5126305;27;19974;-56
2022/01/20 08:31:47;;;;;;;;;;;2.50;99.90;;;;;;5135662;27;20358;-61
2022/01/20 08:34:13;;;;;;;;;;;2.60;99.90;;;;;;5132286;27;19923;-56
2022/01/20 08:36:38;;;;;;;;;;;2.70;99.90;;;;;;5143001;27;20018;-55
2022/01/20 08:39:20;;;;;;;;;;;2.80;99.90;;;;;;5127134;27;20054;-56
2022/01/20 08:41:46;;;;;;;;;;;2.80;99.90;;;;;;5126654;27;19927;-58
2022/01/20 08:44:12;;;;;;;;;;;2.80;99.90;;;;;;5138800;27;19927;-57
2022/01/20 08:46:42;;;;;;;;;;;2.80;99.90;;;;;;5110377;27;20337;-57
2022/01/20 08:49:08;;;;;;;;;;;2.80;99.90;;;;;;5122254;27;20046;-58
2022/01/20 08:51:35;;;;;;;;;;;2.80;99.90;;;;;;5117129;27;19973;-56
2022/01/20 08:54:01;;;;;;;;;;;2.80;99.90;;;;;;5115100;27;19927;-57
2022/01/20 08:56:26;;;;;;;;;;;2.80;99.90;;;;;;5136696;27;19928;-58
2022/01/20 08:58:52;;;;;;;;;;;3.40;99.90;;;;;;5132095;27;20328;-55
2022/01/20 09:01:18;;;;;;;;;;;3.00;99.90;;;;;;5138207;27;19927;-56
2022/01/20 09:03:43;;;;;;;;;;;3.20;99.90;;;;;;5146231;27;20284;-56
2022/01/20 09:06:09;;;;;;;;;;;3.20;99.90;;;;;;5131942;27;20045;-57
2022/01/20 09:08:34;;;;;;;;;;;3.30;99.90;;;;;;5142676;27;20068;-56
2022/01/20 09:11:01;;;;;;;;;;;3.30;99.90;;;;;;5129347;27;20400;-60
2022/01/20 09:16:11;;;;;;;;;;;3.20;99.90;;;;;;5139814;27;19981;-62
2022/01/20 09:18:37;;;;;;;;;;;4.30;99.90;;;;;;5128888;27;19967;-60
2022/01/20 09:21:02;;;;;;;;;;;3.20;99.90;;;;;;5141479;27;19935;-64
2022/01/20 09:23:28;;;;;;;;;;;3.20;99.90;;;;;;5133692;27;20337;-58
2022/01/20 09:25:54;;;;;;;;;;;3.30;99.90;;;;;;5139869;27;20018;-61
2022/01/20 09:28:19;;;;;;;;;;;3.30;99.90;;;;;;5129511;27;19928;-60
2022/01/20 09:30:46;;;;;;;;;;;3.50;99.90;;;;;;5125481;27;19927;-56
2022/01/20 09:33:16;;;;;;;;;;;4.00;99.90;;;;;;5139333;27;19934;-60
2022/01/20 09:35:44;;;;;;;;;;;4.00;99.90;;;;;;5125130;27;20004;-56
2022/01/20 09:38:11;;;;;;;;;;;4.90;99.90;;;;;;5136899;27;19931;-58
2022/01/20 09:40:37;;;;;;;;;;;3.50;99.90;;;;;;5130179;27;19938;-59
2022/01/20 09:43:03;;;;;;;;;;;3.60;99.90;;;;;;5128441;27;19966;-61
2022/01/20 09:45:30;;;;;;;;;;;3.60;99.90;;;;;;5129953;27;19975;-60
2022/01/20 09:47:55;;;;;;;;;;;3.60;99.90;;;;;;5124949;27;20029;-56
2022/01/20 09:50:22;;;;;;;;;;;3.60;99.90;;;;;;5128660;27;19923;-58
2022/01/20 09:52:48;;;;;;;;;;;3.70;99.90;;;;;;5131774;27;20359;-58
2022/01/20 09:55:14;;;;;;;;;;;3.80;99.90;;;;;;5128912;27;20289;-58
2022/01/20 09:57:40;;;;;;;;;;;4.00;99.90;;;;;;5124662;27;19928;-65
2022/01/20 10:00:07;;;;;;;;;;;2.90;99.90;;;;;;5124608;27;19935;-60
2022/01/20 10:02:33;;;;;;;;;;;4.20;99.90;;;;;;5123278;27;19932;-59
2022/01/20 10:04:59;;;;;;;;;;;4.30;99.90;;;;;;5124491;27;20359;-57
2022/01/20 10:07:30;;;;;;;;;;;4.30;99.90;;;;;;5132957;27;19932;-58
2022/01/20 10:09:55;;;;;;;;;;;4.20;99.90;;;;;;5141143;27;19931;-56
2022/01/20 10:12:26;;;;;;;;;;;4.10;99.90;;;;;;5133262;27;20004;-56
2022/01/20 10:14:57;;;;;;;;;;;4.10;99.90;;;;;;5137842;27;19931;-56
2022/01/20 10:17:28;;;;;;;;;;;4.20;99.90;;;;;;5140548;27;19934;-57
2022/01/20 10:20:04;;;;;;;;;;;4.40;99.90;;;;;;5134756;27;20014;-55
2022/01/20 10:22:31;;;;;;;;;;;4.60;99.90;;;;;;5131405;27;20368;-56
2022/01/20 10:24:58;;;;;;;;;;;4.60;99.90;;;;;;5143112;27;20493;-56
2022/01/20 10:27:24;;;;;;;;;;;4.70;99.90;;;;;;5141503;27;19934;-56
2022/01/20 10:30:00;;;;;;;;;;;5.00;99.90;;;;;;5125359;27;19928;-58
2022/01/20 10:32:26;;;;;;;;;;;4.90;99.90;;;;;;5131945;27;19928;-56
2022/01/20 10:35:03;;;;;;;;;;;4.50;99.90;;;;;;5131261;27;19927;-57
2022/01/20 10:37:29;;;;;;;;;;;4.30;99.90;;;;;;5140266;27;20471;-59
2022/01/20 10:40:03;;;;;;;;;;;4.00;99.90;;;;;;5129874;27;20486;-56
2022/01/20 10:42:34;;;;;;;;;;;3.90;99.90;;;;;;5140023;27;19979;-57
2022/01/20 10:45:00;;;;;;;;;;;3.70;99.90;;;;;;5132475;27;19950;-60
2022/01/20 10:47:27;;;;;;;;;;;3.70;99.90;;;;;;5140861;27;20258;-60
2022/01/20 10:49:53;;;;;;;;;;;3.90;99.90;;;;;;5140970;27;19933;-61
2022/01/20 10:52:23;;;;;;;;;;;4.30;99.90;;;;;;5133658;27;19984;-59
2022/01/20 10:54:50;;;;;;;;;;;4.40;99.90;;;;;;5141066;27;19981;-59
2022/01/20 10:57:16;;;;;;;;;;;4.30;99.90;;;;;;5133191;27;20304;-60
2022/01/20 10:59:47;;;;;;;;;;;4.20;99.90;;;;;;5138117;27;19934;-59
2022/01/20 11:02:13;;;;;;;;;;;4.10;99.90;;;;;;5142753;27;20021;-56
2022/01/20 11:04:39;;;;;;;;;;;4.00;99.90;;;;;;5145157;27;20332;-56
2022/01/20 11:07:07;;;;;;;;;;;3.90;99.90;;;;;;5134262;27;20495;-57
2022/01/20 11:09:40;;;;;;;;;;;3.90;99.90;;;;;;5136784;27;20013;-57
2022/01/20 11:12:06;;;;;;;;;;;3.90;99.90;;;;;;5134680;27;20029;-57
2022/01/20 11:14:32;;;;;;;;;;;4.10;99.90;;;;;;5138870;27;20108;-56
2022/01/20 11:16:59;;;;;;;;;;;4.10;99.90;;;;;;5125030;27;20006;-57
2022/01/20 11:19:31;;;;;;;;;;;4.20;99.90;;;;;;5125351;27;19927;-56
2022/01/20 11:22:07;;;;;;;;;;;4.20;99.90;;;;;;5139482;27;20390;-58
2022/01/20 11:24:33;;;;;;;;;;;4.50;99.90;;;;;;5137905;27;19949;-56
2022/01/20 11:26:59;;;;;;;;;;;4.80;99.90;;;;;;5131848;27;19927;-59
2022/01/20 11:29:38;;;;;;;;;;;4.90;99.90;;;;;;5127756;27;19974;-56
2022/01/20 11:32:14;;;;;;;;;;;4.80;99.90;;;;;;5129118;27;19946;-59
2022/01/20 11:34:40;;;;;;;;;;;4.80;99.90;;;;;;5136209;27;20381;-56
2022/01/20 11:37:07;;;;;;;;;;;4.80;99.90;;;;;;5131225;27;19927;-56
2022/01/20 11:39:33;;;;;;;;;;;4.80;99.90;;;;;;5133793;27;19933;-58
2022/01/20 11:42:00;;;;;;;;;;;4.90;99.90;;;;;;5125118;27;20459;-59
2022/01/20 11:44:28;;;;;;;;;;;4.90;99.90;;;;;;5127573;27;19931;-58
2022/01/20 11:47:03;;;;;;;;;;;5.00;99.90;;;;;;5127968;27;19974;-59
2022/01/20 11:49:34;;;;;;;;;;;5.10;99.90;;;;;;5125765;27;19927;-62
2022/01/20 11:51:59;;;;;;;;;;;5.20;99.90;;;;;;5131149;27;20006;-57
2022/01/20 11:54:33;;;;;;;;;;;5.20;99.90;;;;;;5125824;27;20006;-56
2022/01/20 11:57:10;;;;;;;;;;;5.10;99.90;;;;;;5126450;27;20338;-57
2022/01/20 11:59:43;;;;;;;;;;;5.00;99.90;;;;;;5130918;27;19934;-61
2022/01/20 12:02:09;;;;;;;;;;;4.80;99.90;;;;;;5140382;27;19933;-57
2022/01/20 12:04:35;;;;;;;;;;;4.50;99.90;;;;;;5145219;27;19931;-61
2022/01/20 12:07:01;;;;;;;;;;;4.70;99.90;;;;;;5139789;27;19934;-62
2022/01/20 12:09:35;;;;;;;;;;;4.60;99.90;;;;;;5137196;27;19958;-58
2022/01/20 12:12:02;;;;;;;;;;;4.70;99.90;;;;;;5138972;27;19934;-56
2022/01/20 12:14:35;;;;;;;;;;;4.60;99.90;;;;;;5135767;27;19970;-56
2022/01/20 12:17:07;;;;;;;;;;;4.30;99.90;;;;;;5130095;27;19980;-56
2022/01/20 12:19:33;;;;;;;;;;;4.30;99.90;;;;;;5137254;27;20366;-56
2022/01/20 12:21:58;;;;;;;;;;;4.10;99.90;;;;;;5132074;27;19934;-56
2022/01/20 12:24:24;;;;;;;;;;;4.10;99.90;;;;;;5137136;27;19972;-59
2022/01/20 12:26:50;;;;;;;;;;;4.20;99.90;;;;;;5127639;27;20435;-56
2022/01/20 12:29:15;;;;;;;;;;;4.20;99.90;;;;;;5126044;27;19940;-55
2022/01/20 12:31:45;;;;;;;;;;;4.30;99.90;;;;;;5144561;27;19949;-57
2022/01/20 12:34:11;;;;;;;;;;;4.40;99.90;;;;;;5138029;27;20188;-63
2022/01/20 12:36:39;;;;;;;;;;;4.50;99.90;;;;;;5142648;27;19978;-57
2022/01/20 12:39:09;;;;;;;;;;;4.70;99.90;;;;;;5125982;27;20319;-63
2022/01/20 12:41:35;;;;;;;;;;;4.80;99.90;;;;;;5135475;27;20118;-67
2022/01/20 12:44:07;;;;;;;;;;;5.60;99.90;;;;;;5139821;27;19927;-56
2022/01/20 12:46:36;;;;;;;;;;;4.90;99.90;;;;;;5127586;27;19927;-56
2022/01/20 12:49:20;;;;;;;;;;;5.00;99.90;;;;;;5140070;27;19934;-60
2022/01/20 12:51:54;;;;;;;;;;;4.90;99.90;;;;;;5134666;27;19927;-56
2022/01/20 12:54:26;;;;;;;;;;;5.00;99.90;;;;;;5141808;27;19970;-58
2022/01/20 12:56:52;;;;;;;;;;;5.10;99.90;;;;;;5131488;27;19930;-65
2022/01/20 12:59:38;;;;;;;;;;;5.10;99.90;;;;;;5137334;27;20708;-58
2022/01/20 13:02:08;;;;;;;;;;;5.10;99.90;;;;;;5137152;27;20040;-62
2022/01/20 13:04:35;;;;;;;;;;;5.70;99.90;;;;;;5125833;27;20400;-60
2022/01/20 13:07:02;;;;;;;;;;;5.20;99.90;;;;;;5136770;27;19930;-60
2022/01/20 13:09:42;;;;;;;;;;;5.20;99.90;;;;;;5133009;27;19978;-57
2022/01/20 13:12:09;;;;;;;;;;;5.40;99.90;;;;;;5131437;27;19927;-59
2022/01/20 13:14:38;;;;;;;;;;;5.60;99.90;;;;;;5142028;27;20296;-56
2022/01/20 13:17:05;;;;;;;;;;;5.80;99.90;;;;;;5130647;27;19927;-58
2022/01/20 13:19:31;;;;;;;;;;;5.60;99.90;;;;;;5137757;27;19946;-59
2022/01/20 13:21:57;;;;;;;;;;;5.40;99.90;;;;;;5138521;27;20280;-59
2022/01/20 13:24:27;;;;;;;;;;;5.30;99.90;;;;;;5134721;27;20369;-57
2022/01/20 13:26:53;;;;;;;;;;;5.30;99.90;;;;;;5129487;27;19935;-59
2022/01/20 13:29:19;;;;;;;;;;;5.10;99.90;;;;;;5124983;27;19927;-57
2022/01/20 13:31:45;;;;;;;;;;;5.00;99.90;;;;;;5125736;27;20282;-56
2022/01/20 13:34:15;;;;;;;;;;;5.00;99.90;;;;;;5136666;27;19927;-56
2022/01/20 13:36:45;;;;;;;;;;;4.90;99.90;;;;;;5133921;27;20001;-57
2022/01/20 13:39:11;;;;;;;;;;;4.80;99.90;;;;;;5126244;27;19934;-59
2022/01/20 13:41:37;;;;;;;;;;;5.60;99.90;;;;;;5135458;27;19927;-58
2022/01/20 13:46:59;;;;;;;;;;;4.60;99.90;;;;;;5146683;27;19927;-63
2022/01/20 13:49:25;;;;;;;;;;;4.70;99.90;;;;;;5136480;27;20013;-66
2022/01/20 13:52:01;;;;;;;;;;;4.50;99.90;;;;;;5138511;27;20013;-60
2022/01/20 13:54:36;;;;;;;;;;;4.60;99.90;;;;;;5138447;27;20389;-59
2022/01/20 13:57:02;;;;;;;;;;;4.50;99.90;;;;;;5148249;27;19934;-60
2022/01/20 13:59:28;;;;;;;;;;;4.60;99.90;;;;;;5137676;27;20267;-57
2022/01/20 14:01:53;;;;;;;;;;;4.40;99.90;;;;;;5137774;27;20285;-58
2022/01/20 14:04:19;;;;;;;;;;;4.60;99.90;;;;;;5129410;27;19927;-58
2022/01/20 14:06:44;;;;;;;;;;;4.50;99.90;;;;;;5137720;27;20680;-58
2022/01/20 14:09:10;;;;;;;;;;;4.70;99.90;;;;;;5143362;27;20300;-58
2022/01/20 14:11:35;;;;;;;;;;;4.50;99.90;;;;;;5129550;27;20151;-56
2022/01/20 14:14:02;;;;;;;;;;;4.70;99.90;;;;;;5129448;27;19927;-57
2022/01/20 14:16:29;;;;;;;;;;;4.70;99.90;;;;;;5127476;27;19927;-59
2022/01/20 14:18:57;;;;;;;;;;;4.70;99.90;;;;;;5130142;27;19931;-59
2022/01/20 14:21:23;;;;;;;;;;;4.90;99.90;;;;;;5129428;27;19935;-57
2022/01/20 14:23:49;;;;;;;;;;;4.50;99.90;;;;;;5135034;27;19934;-60
2022/01/20 14:26:22;;;;;;;;;;;4.40;99.90;;;;;;5129815;27;19979;-59
2022/01/20 14:28:47;;;;;;;;;;;4.20;99.90;;;;;;5128542;27;19986;-60
2022/01/20 14:31:13;;;;;;;;;;;4.20;99.90;;;;;;5128623;27;19931;-59
2022/01/20 14:33:39;;;;;;;;;;;4.00;99.90;;;;;;5130478;27;19977;-59
2022/01/20 14:36:04;;;;;;;;;;;3.90;99.90;;;;;;5131282;27;19937;-56
2022/01/20 14:38:30;;;;;;;;;;;3.90;99.90;;;;;;5130814;27;19923;-57
2022/01/20 14:40:56;;;;;;;;;;;3.90;99.90;;;;;;5131079;27;19978;-56
2022/01/20 14:43:22;;;;;;;;;;;3.70;99.90;;;;;;5131003;27;19927;-57
2022/01/20 14:45:48;;;;;;;;;;;3.50;99.90;;;;;;5128366;27;19972;-58
2022/01/20 14:48:15;;;;;;;;;;;3.70;99.90;;;;;;5129176;27;20362;-57
2022/01/20 14:50:41;;;;;;;;;;;3.30;99.90;;;;;;5128845;27;20399;-57
2022/01/20 14:53:07;;;;;;;;;;;3.30;99.90;;;;;;5127208;27;19938;-58
2022/01/20 14:55:32;;;;;;;;;;;3.30;99.90;;;;;;5130442;27;19927;-56
2022/01/20 14:57:58;;;;;;;;;;;3.30;99.90;;;;;;5130508;27;19934;-55
2022/01/20 15:00:24;;;;;;;;;;;3.50;99.90;;;;;;5128432;27;20383;-58
2022/01/20 15:02:49;;;;;;;;;;;3.30;99.90;;;;;;5126883;27;19931;-57
2022/01/20 15:05:16;;;;;;;;;;;3.40;99.90;;;;;;5129261;27;19932;-56
2022/01/20 15:07:42;;;;;;;;;;;3.50;99.90;;;;;;5128448;27;19927;-59
2022/01/20 15:10:08;;;;;;;;;;;3.50;99.90;;;;;;5126910;27;20373;-57
2022/01/20 15:12:36;;;;;;;;;;;3.50;99.90;;;;;;5126277;27;19932;-58
2022/01/20 15:15:03;;;;;;;;;;;3.50;99.90;;;;;;5128349;27;20017;-57
2022/01/20 15:17:28;;;;;;;;;;;3.50;99.90;;;;;;5129467;27;20342;-55
2022/01/20 15:19:54;;;;;;;;;;;3.50;99.90;;;;;;5127821;27;19952;-56
2022/01/20 15:22:20;;;;;;;;;;;3.50;99.90;;;;;;5128748;27;19938;-56
2022/01/20 15:24:45;;;;;;;;;;;3.50;99.90;;;;;;5138644;27;20425;-58
2022/01/20 15:27:11;;;;;;;;;;;3.50;99.90;;;;;;5128838;27;20010;-56
2022/01/20 15:29:36;;;;;;;;;;;3.50;99.90;;;;;;5129699;27;19949;-56
2022/01/20 15:32:02;;;;;;;;;;;3.50;99.90;;;;;;5140352;27;19927;-57
2022/01/20 15:34:28;;;;;;;;;;;3.50;99.90;;;;;;5139579;27;20254;-56
2022/01/20 15:36:54;;;;;;;;;;;3.40;99.90;;;;;;5133538;27;19927;-56
2022/01/20 15:39:21;;;;;;;;;;;3.30;99.90;;;;;;5135842;27;19978;-55